sensor_id;sensor_type;location;lat;lon;timestamp;pressure;altitude;pressure_sealevel;temperature;humidity
78625;BME280;67944;0.000;0.000;2023-04-29T00:00:03;100332.41;;;22.46;40.14
78625;BME280;67944;0.000;0.000;2023-04-29T00:02:32;100333.22;;;22.46;40.09
78625;BME280;67944;0.000;0.000;2023-04-29T00:04:57;100336.06;;;22.45;40.10
78625;BME280;67944;0.000;0.000;2023-04-29T00:07:23;100334.44;;;22.44;40.29
78625;BME280;67944;0.000;0.000;2023-04-29T00:09:48;100330.13;;;22.43;40.33
78625;BME280;67944;0.000;0.000;2023-04-29T00:12:14;100338.28;;;22.41;40.25
78625;BME280;67944;0.000;0.000;2023-04-29T00:14:39;100333.19;;;22.40;40.25
78625;BME280;67944;0.000;0.000;2023-04-29T00:17:07;100333.38;;;22.38;40.30
78625;BME280;67944;0.000;0.000;2023-04-29T00:19:32;100333.38;;;22.38;40.24
78625;BME280;67944;0.000;0.000;2023-04-29T00:21:58;100341.34;;;22.38;40.30
78625;BME280;67944;0.000;0.000;2023-04-29T00:24:23;100329.06;;;22.37;40.61
78625;BME280;67944;0.000;0.000;2023-04-29T00:26:49;100329.91;;;22.38;40.22
78625;BME280;67944;0.000;0.000;2023-04-29T00:29:14;100332.94;;;22.35;40.39
78625;BME280;67944;0.000;0.000;2023-04-29T00:31:40;100326.00;;;22.34;40.33
78625;BME280;67944;0.000;0.000;2023-04-29T00:34:05;100328.84;;;22.32;40.28
78625;BME280;67944;0.000;0.000;2023-04-29T00:36:31;100331.47;;;22.32;40.29
78625;BME280;67944;0.000;0.000;2023-04-29T00:38:57;100337.81;;;22.31;40.06
78625;BME280;67944;0.000;0.000;2023-04-29T00:41:23;100339.84;;;22.29;40.47
78625;BME280;67944;0.000;0.000;2023-04-29T00:43:48;100338.22;;;22.28;40.21
78625;BME280;67944;0.000;0.000;2023-04-29T00:46:14;100342.72;;;22.28;40.53
78625;BME280;67944;0.000;0.000;2023-04-29T00:48:40;100341.06;;;22.27;40.19
78625;BME280;67944;0.000;0.000;2023-04-29T00:51:07;100345.56;;;22.26;40.34
78625;BME280;67944;0.000;0.000;2023-04-29T00:53:33;100349.22;;;22.25;40.54
78625;BME280;67944;0.000;0.000;2023-04-29T00:56:00;100345.75;;;22.25;40.25
78625;BME280;67944;0.000;0.000;2023-04-29T00:58:28;100341.44;;;22.23;40.31
78625;BME280;67944;0.000;0.000;2023-04-29T01:00:58;100335.31;;;22.23;40.42
78625;BME280;67944;0.000;0.000;2023-04-29T01:03:25;100330.84;;;22.23;40.35
78625;BME280;67944;0.000;0.000;2023-04-29T01:06:08;100332.66;;;22.23;40.29
78625;BME280;67944;0.000;0.000;2023-04-29T01:08:54;100340.00;;;22.21;40.41
78625;BME280;67944;0.000;0.000;2023-04-29T01:11:33;100340.19;;;22.19;40.51
78625;BME280;67944;0.000;0.000;2023-04-29T01:14:01;100340.19;;;22.19;40.41
78625;BME280;67944;0.000;0.000;2023-04-29T01:16:37;100333.25;;;22.18;40.35
78625;BME280;67944;0.000;0.000;2023-04-29T01:19:43;100335.91;;;22.18;40.35
78625;BME280;67944;0.000;0.000;2023-04-29T01:22:10;100336.91;;;22.17;40.32
78625;BME280;67944;0.000;0.000;2023-04-29T01:24:35;100338.94;;;22.15;40.78
78625;BME280;67944;0.000;0.000;2023-04-29T01:27:16;100348.72;;;22.15;40.54
78625;BME280;67944;0.000;0.000;2023-04-29T01:30:00;100349.53;;;22.15;40.37
78625;BME280;67944;0.000;0.000;2023-04-29T01:36:12;100347.28;;;22.12;40.76
78625;BME280;67944;0.000;0.000;2023-04-29T01:39:06;100340.31;;;22.11;40.76
78625;BME280;67944;0.000;0.000;2023-04-29T01:41:42;100348.28;;;22.11;40.39
78625;BME280;67944;0.000;0.000;2023-04-29T01:44:16;100347.47;;;22.11;40.75
78625;BME280;67944;0.000;0.000;2023-04-29T01:46:49;100345.81;;;22.10;40.71
78625;BME280;67944;0.000;0.000;2023-04-29T01:49:15;100346.63;;;22.10;40.52
78625;BME280;67944;0.000;0.000;2023-04-29T01:51:40;100345.81;;;22.10;40.57
78625;BME280;67944;0.000;0.000;2023-04-29T01:54:05;100350.31;;;22.09;40.67
78625;BME280;67944;0.000;0.000;2023-04-29T01:56:31;100346.81;;;22.09;40.66
78625;BME280;67944;0.000;0.000;2023-04-29T01:58:56;100347.06;;;22.07;40.49
78625;BME280;67944;0.000;0.000;2023-04-29T02:01:22;100352.34;;;22.07;40.51
78625;BME280;67944;0.000;0.000;2023-04-29T02:03:47;100352.34;;;22.07;40.40
78625;BME280;67944;0.000;0.000;2023-04-29T02:06:13;100349.91;;;22.06;40.63
78625;BME280;67944;0.000;0.000;2023-04-29T02:08:38;100357.03;;;22.05;40.74
78625;BME280;67944;0.000;0.000;2023-04-29T02:11:04;100355.56;;;22.03;40.55
78625;BME280;67944;0.000;0.000;2023-04-29T02:13:30;100359.06;;;22.03;40.35
78625;BME280;67944;0.000;0.000;2023-04-29T02:15:56;100359.25;;;22.02;40.82
78625;BME280;67944;0.000;0.000;2023-04-29T02:18:21;100359.25;;;22.02;40.62
78625;BME280;67944;0.000;0.000;2023-04-29T02:20:47;100356.59;;;22.02;40.33
78625;BME280;67944;0.000;0.000;2023-04-29T02:23:14;100361.06;;;22.01;40.61
78625;BME280;67944;0.000;0.000;2023-04-29T02:25:40;100363.72;;;22.01;40.33
78625;BME280;67944;0.000;0.000;2023-04-29T02:28:05;100360.41;;;21.99;40.32
78625;BME280;67944;0.000;0.000;2023-04-29T02:30:31;100366.53;;;22.00;40.39
78625;BME280;67944;0.000;0.000;2023-04-29T02:32:56;100371.84;;;22.00;40.34
78625;BME280;67944;0.000;0.000;2023-04-29T02:35:22;100367.53;;;21.99;40.65
78625;BME280;67944;0.000;0.000;2023-04-29T02:37:47;100371.00;;;21.99;40.55
78625;BME280;67944;0.000;0.000;2023-04-29T02:40:13;100371.19;;;21.98;40.58
78625;BME280;67944;0.000;0.000;2023-04-29T02:42:38;100379.97;;;21.98;40.65
78625;BME280;67944;0.000;0.000;2023-04-29T02:45:04;100377.53;;;21.97;40.67
78625;BME280;67944;0.000;0.000;2023-04-29T02:47:30;100375.88;;;21.96;40.49
78625;BME280;67944;0.000;0.000;2023-04-29T02:49:55;100374.22;;;21.95;40.61
78625;BME280;67944;0.000;0.000;2023-04-29T02:52:20;100378.72;;;21.94;40.42
78625;BME280;67944;0.000;0.000;2023-04-29T02:54:46;100377.91;;;21.94;40.26
78625;BME280;67944;0.000;0.000;2023-04-29T02:57:11;100379.72;;;21.93;40.62
78625;BME280;67944;0.000;0.000;2023-04-29T02:59:37;100376.25;;;21.93;40.94
78625;BME280;67944;0.000;0.000;2023-04-29T03:02:02;100380.72;;;21.92;40.88
78625;BME280;67944;0.000;0.000;2023-04-29T03:04:28;100385.03;;;21.93;40.46
78625;BME280;67944;0.000;0.000;2023-04-29T03:06:54;100385.22;;;21.92;40.60
78625;BME280;67944;0.000;0.000;2023-04-29T03:09:21;100382.56;;;21.92;40.55
78625;BME280;67944;0.000;0.000;2023-04-29T03:11:47;100389.69;;;21.91;40.38
78625;BME280;67944;0.000;0.000;2023-04-29T03:14:12;100381.75;;;21.91;40.56
78625;BME280;67944;0.000;0.000;2023-04-29T03:16:37;100394.38;;;21.89;40.47
78625;BME280;67944;0.000;0.000;2023-04-29T03:19:03;100389.88;;;21.89;40.71
78625;BME280;67944;0.000;0.000;2023-04-29T03:21:28;100388.25;;;21.88;40.71
78625;BME280;67944;0.000;0.000;2023-04-29T03:23:54;100390.91;;;21.88;40.86
78625;BME280;67944;0.000;0.000;2023-04-29T03:26:20;100390.91;;;21.88;40.57
78625;BME280;67944;0.000;0.000;2023-04-29T03:28:47;100390.06;;;21.88;40.55
78625;BME280;67944;0.000;0.000;2023-04-29T03:31:13;100387.66;;;21.86;40.58
78625;BME280;67944;0.000;0.000;2023-04-29T03:33:40;100386.81;;;21.86;40.47
78625;BME280;67944;0.000;0.000;2023-04-29T03:36:06;100394.97;;;21.84;40.90
78625;BME280;67944;0.000;0.000;2023-04-29T03:38:33;100393.13;;;21.85;40.48
78625;BME280;67944;0.000;0.000;2023-04-29T03:40:58;100400.25;;;21.84;40.30
78625;BME280;67944;0.000;0.000;2023-04-29T03:43:23;100394.16;;;21.84;41.04
78625;BME280;67944;0.000;0.000;2023-04-29T03:45:49;100398.81;;;21.82;40.91
78625;BME280;67944;0.000;0.000;2023-04-29T03:48:15;100400.63;;;21.81;40.63
78625;BME280;67944;0.000;0.000;2023-04-29T03:50:41;100393.69;;;21.80;40.38
78625;BME280;67944;0.000;0.000;2023-04-29T03:53:06;100398.19;;;21.80;40.82
78625;BME280;67944;0.000;0.000;2023-04-29T03:55:32;100407.97;;;21.79;40.53
78625;BME280;67944;0.000;0.000;2023-04-29T03:57:58;100412.63;;;21.77;40.48
78625;BME280;67944;0.000;0.000;2023-04-29T04:00:23;100412.81;;;21.76;40.68
78625;BME280;67944;0.000;0.000;2023-04-29T04:02:51;100412.00;;;21.75;40.98
78625;BME280;67944;0.000;0.000;2023-04-29T04:05:16;100415.66;;;21.74;40.81
78625;BME280;67944;0.000;0.000;2023-04-29T04:07:45;100415.84;;;21.73;40.47
78625;BME280;67944;0.000;0.000;2023-04-29T04:10:10;100418.50;;;21.73;40.41
78625;BME280;67944;0.000;0.000;2023-04-29T04:12:36;100419.50;;;21.72;40.86
78625;BME280;67944;0.000;0.000;2023-04-29T04:15:01;100426.63;;;21.71;40.85
78625;BME280;67944;0.000;0.000;2023-04-29T04:17:28;100434.56;;;21.71;40.58
78625;BME280;67944;0.000;0.000;2023-04-29T04:19:54;100435.59;;;21.70;41.06
78625;BME280;67944;0.000;0.000;2023-04-29T04:22:19;100441.06;;;21.69;40.60
78625;BME280;67944;0.000;0.000;2023-04-29T04:24:45;100433.94;;;21.69;40.70
78625;BME280;67944;0.000;0.000;2023-04-29T04:27:10;100436.78;;;21.68;40.89
78625;BME280;67944;0.000;0.000;2023-04-29T04:29:36;100435.13;;;21.67;40.99
78625;BME280;67944;0.000;0.000;2023-04-29T04:32:01;100437.78;;;21.67;40.71
78625;BME280;67944;0.000;0.000;2023-04-29T04:34:26;100445.94;;;21.65;40.92
78625;BME280;67944;0.000;0.000;2023-04-29T04:36:52;100438.78;;;21.66;41.08
78625;BME280;67944;0.000;0.000;2023-04-29T04:39:17;100451.22;;;21.65;40.63
78625;BME280;67944;0.000;0.000;2023-04-29T04:41:43;100449.63;;;21.64;40.59
78625;BME280;67944;0.000;0.000;2023-04-29T04:44:08;100458.38;;;21.65;40.91
78625;BME280;67944;0.000;0.000;2023-04-29T04:46:34;100461.03;;;21.65;40.81
78625;BME280;67944;0.000;0.000;2023-04-29T04:49:01;100464.47;;;21.65;40.67
78625;BME280;67944;0.000;0.000;2023-04-29T04:51:26;100466.34;;;21.65;40.58
78625;BME280;67944;0.000;0.000;2023-04-29T04:53:53;100469.00;;;21.65;41.06
78625;BME280;67944;0.000;0.000;2023-04-29T04:56:18;100470.00;;;21.64;40.92
78625;BME280;67944;0.000;0.000;2023-04-29T04:58:44;100470.00;;;21.64;40.84
78625;BME280;67944;0.000;0.000;2023-04-29T05:01:09;100468.16;;;21.64;41.02
78625;BME280;67944;0.000;0.000;2023-04-29T05:03:35;100477.94;;;21.64;40.48
78625;BME280;67944;0.000;0.000;2023-04-29T05:06:00;100482.25;;;21.65;40.82
78625;BME280;67944;0.000;0.000;2023-04-29T05:08:26;100490.19;;;21.65;40.94
78625;BME280;67944;0.000;0.000;2023-04-29T05:10:52;100492.63;;;21.66;40.75
78625;BME280;67944;0.000;0.000;2023-04-29T05:13:18;100490.63;;;21.68;40.92
78625;BME280;67944;0.000;0.000;2023-04-29T05:15:44;100495.09;;;21.68;40.55
78625;BME280;67944;0.000;0.000;2023-04-29T05:18:10;100494.09;;;21.69;40.61
78625;BME280;67944;0.000;0.000;2023-04-29T05:20:36;100505.31;;;21.71;40.37
78625;BME280;67944;0.000;0.000;2023-04-29T05:23:02;100503.31;;;21.73;40.59
78625;BME280;67944;0.000;0.000;2023-04-29T05:25:27;100502.94;;;21.76;40.75
78625;BME280;67944;0.000;0.000;2023-04-29T05:27:53;100503.75;;;21.76;40.46
78625;BME280;67944;0.000;0.000;2023-04-29T05:30:18;100512.53;;;21.77;40.93
78625;BME280;67944;0.000;0.000;2023-04-29T05:32:44;100508.88;;;21.78;40.85
78625;BME280;67944;0.000;0.000;2023-04-29T05:35:13;100515.19;;;21.77;40.45
78625;BME280;67944;0.000;0.000;2023-04-29T05:37:39;100519.50;;;21.78;40.62
78625;BME280;67944;0.000;0.000;2023-04-29T05:40:06;100522.13;;;21.78;40.64
78625;BME280;67944;0.000;0.000;2023-04-29T05:42:31;100528.25;;;21.78;40.25
78625;BME280;67944;0.000;0.000;2023-04-29T05:44:57;100520.13;;;21.80;40.43
78625;BME280;67944;0.000;0.000;2023-04-29T05:47:22;100535.66;;;21.83;40.67
78625;BME280;67944;0.000;0.000;2023-04-29T05:49:47;100537.13;;;21.85;40.67
78625;BME280;67944;0.000;0.000;2023-04-29T05:52:13;100539.38;;;21.88;40.61
78625;BME280;67944;0.000;0.000;2023-04-29T05:54:39;100546.31;;;21.89;40.41
78625;BME280;67944;0.000;0.000;2023-04-29T05:57:06;100550.63;;;21.90;40.25
78625;BME280;67944;0.000;0.000;2023-04-29T05:59:32;100552.09;;;21.93;40.40
78625;BME280;67944;0.000;0.000;2023-04-29T06:01:59;100551.06;;;21.94;40.11
78625;BME280;67944;0.000;0.000;2023-04-29T06:04:25;100559.66;;;21.96;40.19
78625;BME280;67944;0.000;0.000;2023-04-29T06:06:55;100559.47;;;21.98;40.31
78625;BME280;67944;0.000;0.000;2023-04-29T06:09:21;100558.47;;;21.99;40.57
78625;BME280;67944;0.000;0.000;2023-04-29T06:11:50;100559.31;;;21.99;40.29
78625;BME280;67944;0.000;0.000;2023-04-29T06:14:15;100576.88;;;22.00;40.59
78625;BME280;67944;0.000;0.000;2023-04-29T06:16:41;100571.59;;;22.00;40.54
78625;BME280;67944;0.000;0.000;2023-04-29T06:19:06;100575.06;;;22.01;40.18
78625;BME280;67944;0.000;0.000;2023-04-29T06:21:32;100572.22;;;22.02;40.35
78625;BME280;67944;0.000;0.000;2023-04-29T06:23:57;100574.88;;;22.02;40.10
78625;BME280;67944;0.000;0.000;2023-04-29T06:26:23;100571.22;;;22.03;40.33
78625;BME280;67944;0.000;0.000;2023-04-29T06:28:49;100580.19;;;22.02;40.41
78625;BME280;67944;0.000;0.000;2023-04-29T06:31:15;100586.31;;;22.03;40.07
78625;BME280;67944;0.000;0.000;2023-04-29T06:33:40;100596.72;;;22.04;40.51
78625;BME280;67944;0.000;0.000;2023-04-29T06:36:06;100601.03;;;22.05;40.42
78625;BME280;67944;0.000;0.000;2023-04-29T06:38:31;100605.31;;;22.06;40.14
78625;BME280;67944;0.000;0.000;2023-04-29T06:40:57;100601.84;;;22.06;40.23
78625;BME280;67944;0.000;0.000;2023-04-29T06:43:25;100605.97;;;22.08;40.01
78625;BME280;67944;0.000;0.000;2023-04-29T06:45:51;100609.41;;;22.09;40.52
78625;BME280;67944;0.000;0.000;2023-04-29T06:48:16;100611.06;;;22.10;40.12
78625;BME280;67944;0.000;0.000;2023-04-29T06:50:53;100610.22;;;22.09;39.92
78625;BME280;67944;0.000;0.000;2023-04-29T06:53:19;100611.06;;;22.10;40.08
78625;BME280;67944;0.000;0.000;2023-04-29T06:55:44;100617.00;;;22.12;40.11
78625;BME280;67944;0.000;0.000;2023-04-29T06:58:11;100627.41;;;22.13;40.13
78625;BME280;67944;0.000;0.000;2023-04-29T07:00:37;100622.94;;;22.14;40.46
78625;BME280;67944;0.000;0.000;2023-04-29T07:03:03;100629.06;;;22.14;40.39
78625;BME280;67944;0.000;0.000;2023-04-29T07:05:28;100625.41;;;22.15;39.61
78625;BME280;67944;0.000;0.000;2023-04-29T07:07:54;100629.72;;;22.16;40.20
78625;BME280;67944;0.000;0.000;2023-04-29T07:10:19;100623.41;;;22.17;40.09
78625;BME280;67944;0.000;0.000;2023-04-29T07:12:44;100625.88;;;22.19;40.06
78625;BME280;67944;0.000;0.000;2023-04-29T07:15:10;100637.28;;;22.19;40.03
78625;BME280;67944;0.000;0.000;2023-04-29T07:17:35;100642.41;;;22.21;40.05
78625;BME280;67944;0.000;0.000;2023-04-29T07:20:01;100646.72;;;22.22;40.18
78625;BME280;67944;0.000;0.000;2023-04-29T07:22:26;100652.03;;;22.22;39.98
78625;BME280;67944;0.000;0.000;2023-04-29T07:24:53;100653.66;;;22.23;40.04
78625;BME280;67944;0.000;0.000;2023-04-29T07:27:19;100663.28;;;22.24;40.12
78625;BME280;67944;0.000;0.000;2023-04-29T07:29:44;100660.63;;;22.24;40.01
78625;BME280;67944;0.000;0.000;2023-04-29T07:32:10;100661.44;;;22.25;39.94
78625;BME280;67944;0.000;0.000;2023-04-29T07:34:36;100667.56;;;22.25;39.90
78625;BME280;67944;0.000;0.000;2023-04-29T07:37:02;100671.88;;;22.26;39.83
78625;BME280;67944;0.000;0.000;2023-04-29T07:39:27;100681.47;;;22.27;40.03
78625;BME280;67944;0.000;0.000;2023-04-29T07:41:54;100666.38;;;22.28;39.95
78625;BME280;67944;0.000;0.000;2023-04-29T07:44:19;100677.81;;;22.28;39.86
78625;BME280;67944;0.000;0.000;2023-04-29T07:46:46;100683.13;;;22.28;39.70
78625;BME280;67944;0.000;0.000;2023-04-29T07:49:11;100678.63;;;22.29;39.81
78625;BME280;67944;0.000;0.000;2023-04-29T07:51:40;100669.69;;;22.30;40.35
78625;BME280;67944;0.000;0.000;2023-04-29T07:54:07;100683.56;;;22.32;39.93
78625;BME280;67944;0.000;0.000;2023-04-29T07:56:33;100673.75;;;22.32;39.97
78625;BME280;67944;0.000;0.000;2023-04-29T07:59:01;100680.91;;;22.32;40.07
78625;BME280;67944;0.000;0.000;2023-04-29T08:01:27;100688.50;;;22.35;39.74
78625;BME280;67944;0.000;0.000;2023-04-29T08:03:53;100690.97;;;22.36;39.99
78625;BME280;67944;0.000;0.000;2023-04-29T08:06:19;100697.91;;;22.37;39.97
78625;BME280;67944;0.000;0.000;2023-04-29T08:08:47;100694.25;;;22.38;39.86
78625;BME280;67944;0.000;0.000;2023-04-29T08:11:19;100695.72;;;22.41;39.81
78625;BME280;67944;0.000;0.000;2023-04-29T08:13:45;100694.72;;;22.42;39.90
78625;BME280;67944;0.000;0.000;2023-04-29T08:16:11;100695.53;;;22.42;39.67
78625;BME280;67944;0.000;0.000;2023-04-29T08:18:36;100698.81;;;22.44;39.82
78625;BME280;67944;0.000;0.000;2023-04-29T08:21:02;100700.47;;;22.45;39.84
78625;BME280;67944;0.000;0.000;2023-04-29T08:23:28;100702.94;;;22.47;40.04
78625;BME280;67944;0.000;0.000;2023-04-29T08:25:53;100703.75;;;22.47;39.73
78625;BME280;67944;0.000;0.000;2023-04-29T08:28:23;100704.59;;;22.48;39.64
78625;BME280;67944;0.000;0.000;2023-04-29T08:30:49;100708.88;;;22.49;39.51
78625;BME280;67944;0.000;0.000;2023-04-29T08:33:14;100715.84;;;22.50;39.82
78625;BME280;67944;0.000;0.000;2023-04-29T08:35:40;100713.19;;;22.50;39.61
78625;BME280;67944;0.000;0.000;2023-04-29T08:38:07;100712.38;;;22.49;39.49
78625;BME280;67944;0.000;0.000;2023-04-29T08:40:34;100725.44;;;22.51;39.48
78625;BME280;67944;0.000;0.000;2023-04-29T08:43:02;100725.44;;;22.51;39.42
78625;BME280;67944;0.000;0.000;2023-04-29T08:45:28;100716.44;;;22.52;39.42
78625;BME280;67944;0.000;0.000;2023-04-29T08:47:54;100721.75;;;22.52;39.42
78625;BME280;67944;0.000;0.000;2023-04-29T08:50:21;100733.19;;;22.52;39.34
78625;BME280;67944;0.000;0.000;2023-04-29T08:52:49;100726.88;;;22.53;39.41
78625;BME280;67944;0.000;0.000;2023-04-29T08:55:16;100730.34;;;22.54;39.29
78625;BME280;67944;0.000;0.000;2023-04-29T08:57:44;100732.00;;;22.55;39.41
78625;BME280;67944;0.000;0.000;2023-04-29T09:00:12;100723.03;;;22.56;39.19
78625;BME280;67944;0.000;0.000;2023-04-29T09:02:44;100731.81;;;22.56;39.41
78625;BME280;67944;0.000;0.000;2023-04-29T09:05:11;100735.31;;;22.57;39.04
78625;BME280;67944;0.000;0.000;2023-04-29T09:07:37;100739.59;;;22.58;39.26
78625;BME280;67944;0.000;0.000;2023-04-29T09:10:04;100739.59;;;22.58;39.60
78625;BME280;67944;0.000;0.000;2023-04-29T09:12:30;100739.41;;;22.60;39.24
78625;BME280;67944;0.000;0.000;2023-04-29T09:14:58;100740.25;;;22.60;39.14
78625;BME280;67944;0.000;0.000;2023-04-29T09:17:46;100749.03;;;22.61;39.10
78625;BME280;67944;0.000;0.000;2023-04-29T09:22:49;100749.84;;;22.61;38.95
78625;BME280;67944;0.000;0.000;2023-04-29T09:25:15;100746.19;;;22.62;38.95
78625;BME280;67944;0.000;0.000;2023-04-29T09:27:41;100755.81;;;22.63;38.83
78625;BME280;67944;0.000;0.000;2023-04-29T09:30:07;100757.44;;;22.64;38.86
78625;BME280;67944;0.000;0.000;2023-04-29T09:32:33;100760.94;;;22.65;39.04
78625;BME280;67944;0.000;0.000;2023-04-29T09:35:23;100750.31;;;22.65;39.03
78625;BME280;67944;0.000;0.000;2023-04-29T09:37:52;100768.72;;;22.66;39.03
78625;BME280;67944;0.000;0.000;2023-04-29T09:40:33;100769.34;;;22.68;39.09
78625;BME280;67944;0.000;0.000;2023-04-29T09:43:00;100763.84;;;22.70;38.98
78625;BME280;67944;0.000;0.000;2023-04-29T09:45:39;100762.03;;;22.70;38.95
78625;BME280;67944;0.000;0.000;2023-04-29T09:48:07;100764.50;;;22.72;38.75
78625;BME280;67944;0.000;0.000;2023-04-29T09:50:35;100770.63;;;22.72;38.67
78625;BME280;67944;0.000;0.000;2023-04-29T09:53:05;100768.56;;;22.74;38.77
78625;BME280;67944;0.000;0.000;2023-04-29T09:58:33;100771.72;;;22.78;38.75
78625;BME280;67944;0.000;0.000;2023-04-29T10:01:03;100772.53;;;22.78;38.75
78625;BME280;67944;0.000;0.000;2023-04-29T10:03:33;100772.34;;;22.80;38.51
78625;BME280;67944;0.000;0.000;2023-04-29T10:06:00;100780.13;;;22.81;38.81
78625;BME280;67944;0.000;0.000;2023-04-29T10:08:28;100777.47;;;22.81;38.52
78625;BME280;67944;0.000;0.000;2023-04-29T10:10:55;100784.44;;;22.82;38.65
78625;BME280;67944;0.000;0.000;2023-04-29T10:13:24;100781.78;;;22.82;38.57
78625;BME280;67944;0.000;0.000;2023-04-29T10:16:00;100786.91;;;22.84;38.62
78625;BME280;67944;0.000;0.000;2023-04-29T10:18:36;100775.47;;;22.83;38.25
78625;BME280;67944;0.000;0.000;2023-04-29T10:21:03;100779.78;;;22.84;38.46
78625;BME280;67944;0.000;0.000;2023-04-29T10:23:32;100781.41;;;22.85;38.50
78625;BME280;67944;0.000;0.000;2023-04-29T10:26:00;100790.22;;;22.86;38.32
78625;BME280;67944;0.000;0.000;2023-04-29T10:28:30;100789.19;;;22.87;38.24
78625;BME280;67944;0.000;0.000;2023-04-29T10:31:00;100793.50;;;22.88;38.52
78625;BME280;67944;0.000;0.000;2023-04-29T10:33:30;100789.19;;;22.87;38.23
78625;BME280;67944;0.000;0.000;2023-04-29T10:35:56;100787.19;;;22.89;38.07
78625;BME280;67944;0.000;0.000;2023-04-29T10:38:38;100792.69;;;22.87;38.11
78625;BME280;67944;0.000;0.000;2023-04-29T10:41:15;100794.31;;;22.88;38.22
78625;BME280;67944;0.000;0.000;2023-04-29T10:43:43;100789.00;;;22.88;37.95
78625;BME280;67944;0.000;0.000;2023-04-29T10:48:42;100789.00;;;22.88;38.48
78625;BME280;67944;0.000;0.000;2023-04-29T10:51:07;100792.50;;;22.89;38.00
78625;BME280;67944;0.000;0.000;2023-04-29T10:53:33;100799.63;;;22.88;37.93
78625;BME280;67944;0.000;0.000;2023-04-29T10:56:07;100803.13;;;22.89;38.03
78625;BME280;67944;0.000;0.000;2023-04-29T11:01:00;100798.63;;;22.89;38.17
78625;BME280;67944;0.000;0.000;2023-04-29T11:03:48;100798.44;;;22.91;38.01
78625;BME280;67944;0.000;0.000;2023-04-29T11:06:15;100797.63;;;22.90;37.79
78625;BME280;67944;0.000;0.000;2023-04-29T11:08:40;100793.94;;;22.92;37.78
78625;BME280;67944;0.000;0.000;2023-04-29T11:11:07;100793.13;;;22.91;37.97
78625;BME280;67944;0.000;0.000;2023-04-29T11:13:39;100784.34;;;22.90;37.93
78625;BME280;67944;0.000;0.000;2023-04-29T11:16:11;100794.78;;;22.92;37.90
78625;BME280;67944;0.000;0.000;2023-04-29T11:19:07;100784.97;;;22.93;37.91
78625;BME280;67944;0.000;0.000;2023-04-29T11:21:36;100791.13;;;22.93;37.94
78625;BME280;67944;0.000;0.000;2023-04-29T11:24:04;100796.25;;;22.95;37.85
78625;BME280;67944;0.000;0.000;2023-04-29T11:26:34;100793.59;;;22.95;37.71
78625;BME280;67944;0.000;0.000;2023-04-29T11:29:00;100798.69;;;22.96;37.82
78625;BME280;67944;0.000;0.000;2023-04-29T11:31:30;100797.03;;;22.95;37.89
78625;BME280;67944;0.000;0.000;2023-04-29T11:33:57;100801.34;;;22.96;37.90
78625;BME280;67944;0.000;0.000;2023-04-29T11:36:23;100795.84;;;22.98;37.83
78625;BME280;67944;0.000;0.000;2023-04-29T11:38:48;100799.31;;;22.98;37.75
78625;BME280;67944;0.000;0.000;2023-04-29T11:41:14;100801.97;;;22.98;37.78
78625;BME280;67944;0.000;0.000;2023-04-29T11:43:40;100799.13;;;23.00;37.72
78625;BME280;67944;0.000;0.000;2023-04-29T11:46:13;100799.97;;;23.00;37.87
78625;BME280;67944;0.000;0.000;2023-04-29T11:48:45;100806.91;;;23.01;37.67
78625;BME280;67944;0.000;0.000;2023-04-29T11:51:15;100801.59;;;23.01;37.68
78625;BME280;67944;0.000;0.000;2023-04-29T11:53:42;100795.28;;;23.02;37.45
78625;BME280;67944;0.000;0.000;2023-04-29T11:56:08;100798.75;;;23.03;37.58
78625;BME280;67944;0.000;0.000;2023-04-29T11:58:35;100797.94;;;23.02;37.49
78625;BME280;67944;0.000;0.000;2023-04-29T12:01:02;100800.22;;;23.05;37.51
78625;BME280;67944;0.000;0.000;2023-04-29T12:03:30;100802.06;;;23.05;37.53
78625;BME280;67944;0.000;0.000;2023-04-29T12:05:57;100811.66;;;23.06;37.55
78625;BME280;67944;0.000;0.000;2023-04-29T12:08:24;100806.19;;;23.07;37.58
78625;BME280;67944;0.000;0.000;2023-04-29T12:10:51;100808.84;;;23.07;37.76
78625;BME280;67944;0.000;0.000;2023-04-29T12:13:18;100802.50;;;23.08;37.62
78625;BME280;67944;0.000;0.000;2023-04-29T12:15:45;100806.00;;;23.09;37.41
78625;BME280;67944;0.000;0.000;2023-04-29T12:18:12;100807.63;;;23.10;37.56
78625;BME280;67944;0.000;0.000;2023-04-29T12:20:39;100804.97;;;23.10;37.53
78625;BME280;67944;0.000;0.000;2023-04-29T12:23:16;100811.94;;;23.11;37.31
78625;BME280;67944;0.000;0.000;2023-04-29T12:26:03;100813.59;;;23.12;37.36
78625;BME280;67944;0.000;0.000;2023-04-29T12:28:28;100809.91;;;23.13;37.36
78625;BME280;67944;0.000;0.000;2023-04-29T12:30:55;100816.25;;;23.12;37.40
78625;BME280;67944;0.000;0.000;2023-04-29T12:33:21;100816.06;;;23.13;37.23
78625;BME280;67944;0.000;0.000;2023-04-29T12:35:48;100807.06;;;23.14;37.31
78625;BME280;67944;0.000;0.000;2023-04-29T12:38:15;100813.22;;;23.15;37.31
78625;BME280;67944;0.000;0.000;2023-04-29T12:40:43;100814.03;;;23.15;37.28
78625;BME280;67944;0.000;0.000;2023-04-29T12:43:09;100810.38;;;23.16;37.23
78625;BME280;67944;0.000;0.000;2023-04-29T12:45:35;100802.41;;;23.16;37.12
78625;BME280;67944;0.000;0.000;2023-04-29T12:48:01;100811.16;;;23.17;36.92
78625;BME280;67944;0.000;0.000;2023-04-29T12:50:31;100802.19;;;23.18;37.21
78625;BME280;67944;0.000;0.000;2023-04-29T12:53:01;100812.81;;;23.18;37.28
78625;BME280;67944;0.000;0.000;2023-04-29T12:55:28;100815.28;;;23.19;37.19
78625;BME280;67944;0.000;0.000;2023-04-29T12:57:53;100803.84;;;23.19;37.04
78625;BME280;67944;0.000;0.000;2023-04-29T13:00:19;100806.31;;;23.20;37.27
78625;BME280;67944;0.000;0.000;2023-04-29T13:02:45;100806.31;;;23.20;37.06
78625;BME280;67944;0.000;0.000;2023-04-29T13:05:11;100813.25;;;23.21;37.17
78625;BME280;67944;0.000;0.000;2023-04-29T13:07:37;100806.13;;;23.22;36.82
78625;BME280;67944;0.000;0.000;2023-04-29T13:10:03;100799.78;;;23.23;37.04
78625;BME280;67944;0.000;0.000;2023-04-29T13:12:31;100806.75;;;23.24;37.00
78625;BME280;67944;0.000;0.000;2023-04-29T13:14:56;100806.75;;;23.24;37.06